Time;durP1;ratioP1;P1;durP2;ratioP2;P2;SDS_P1;SDS_P2;PMS_P1;PMS_P2;Temp;Humidity;BMP_temperature;BMP_pressure;BME280_temperature;BME280_humidity;BME280_pressure;Samples;Min_cycle;Max_cycle;Signal;HPM_P1;HPM_P2
2023/04/25 00:01:12;;;;;;;3.75;2.05;;;;;;;13.99;64.24;101049.44;5025441;28;20053;-55
2023/04/25 00:03:38;;;;;;;2.83;1.92;;;;;;;13.99;64.38;101061.00;5027133;28;20077;-55
2023/04/25 00:06:04;;;;;;;2.17;1.70;;;;;;;13.98;64.33;101053.94;5008549;28;20064;-55
2023/04/25 00:08:30;;;;;;;2.75;1.50;;;;;;;13.99;64.50;101061.00;5027322;28;20057;-55
2023/04/25 00:10:56;;;;;;;3.10;2.03;;;;;;;13.99;64.41;101061.00;5026101;28;20030;-55
2023/04/25 00:13:22;;;;;;;2.72;1.65;;;;;;;13.99;64.33;101057.47;5008655;28;20480;-55
2023/04/25 00:15:48;;;;;;;3.17;1.77;;;;;;;13.99;64.25;101061.00;5025588;28;20045;-55
2023/04/25 00:18:14;;;;;;;3.20;1.75;;;;;;;13.98;64.73;101063.78;5025996;28;20041;-55
2023/04/25 00:20:39;;;;;;;2.70;1.65;;;;;;;13.98;64.14;101067.31;5026679;28;20052;-55
2023/04/25 00:23:05;;;;;;;2.00;1.80;;;;;;;13.99;64.64;101081.53;5008022;28;20108;-55
2023/04/25 00:25:30;;;;;;;1.77;1.38;;;;;;;13.99;64.42;101078.88;5026770;28;20044;-55
2023/04/25 00:27:55;;;;;;;2.75;1.73;;;;;;;13.98;64.66;101071.81;5025276;28;20034;-55
2023/04/25 00:30:21;;;;;;;2.63;1.40;;;;;;;13.98;64.58;101074.50;5026160;28;20033;-55
2023/04/25 00:32:46;;;;;;;3.28;1.60;;;;;;;13.98;64.33;101072.66;5026552;28;20040;-55
2023/04/25 00:35:11;;;;;;;2.35;1.60;;;;;;;13.97;64.22;101073.63;5025680;28;20030;-55
2023/04/25 00:37:37;;;;;;;4.35;1.80;;;;;;;13.97;64.47;101064.75;5026422;28;20037;-55
2023/04/25 00:40:06;;;;;;;4.97;1.60;;;;;;;13.97;64.39;101072.78;5021940;28;20025;-55
2023/04/25 00:42:31;;;;;;;3.20;1.80;;;;;;;13.97;64.46;101062.06;5026152;28;20112;-55
2023/04/25 00:44:58;;;;;;;2.83;1.60;;;;;;;13.96;64.59;101066.56;5026192;28;20108;-55
2023/04/25 00:47:25;;;;;;;3.55;1.75;;;;;;;13.94;64.46;101063.16;5025394;28;20466;-55
2023/04/25 00:49:51;;;;;;;3.30;1.60;;;;;;;13.95;64.61;101064.84;5025975;28;20035;-55
2023/04/25 00:52:16;;;;;;;2.78;1.67;;;;;;;13.95;64.33;101061.34;5025635;28;20029;-55
2023/04/25 00:54:42;;;;;;;4.30;1.85;;;;;;;13.95;64.38;101064.84;5026103;28;20083;-55
2023/04/25 00:57:07;;;;;;;2.60;1.70;;;;;;;13.95;64.25;101067.53;5026558;28;20033;-55
2023/04/25 00:59:34;;;;;;;1.23;1.10;;;;;;;13.95;64.25;101067.53;5026059;28;20025;-55
2023/04/25 01:01:59;;;;;;;3.75;1.50;;;;;;;13.95;64.48;101062.19;5025855;28;20407;-55
2023/04/25 01:04:29;;;;;;;1.88;1.27;;;;;;;13.94;64.59;101073.88;5025160;28;20123;-55
2023/04/25 01:06:55;;;;;;;2.20;1.60;;;;;;;13.94;64.33;101067.69;5025835;28;20541;-55
2023/04/25 01:09:22;;;;;;;2.53;1.52;;;;;;;13.94;64.74;101067.69;5026399;28;20124;-55
2023/04/25 01:11:48;;;;;;;3.33;1.98;;;;;;;13.93;64.61;101073.97;5007219;28;20030;-55
2023/04/25 01:14:14;;;;;;;2.25;1.38;;;;;;;13.94;64.25;101063.16;5029761;28;20038;-55
2023/04/25 01:16:39;;;;;;;2.00;1.35;;;;;;;13.93;64.43;101071.31;5029237;28;20033;-55
2023/04/25 01:19:11;;;;;;;2.60;1.65;;;;;;;13.93;64.36;101066.78;5030453;28;20071;-55
2023/04/25 01:21:36;;;;;;;2.03;1.40;;;;;;;13.93;64.24;101071.31;5017954;28;20026;-55
2023/04/25 01:24:02;;;;;;;3.45;1.60;;;;;;;13.93;63.94;101079.34;5030254;28;20456;-55
2023/04/25 01:26:27;;;;;;;1.60;1.42;;;;;;;13.93;64.46;101080.19;5029238;28;20041;-55
2023/04/25 01:28:53;;;;;;;3.85;1.77;;;;;;;13.93;64.51;101077.50;5029158;28;20064;-55
2023/04/25 01:31:19;;;;;;;2.38;1.70;;;;;;;13.92;64.28;101074.94;5028970;28;20091;-55
2023/04/25 01:33:45;;;;;;;4.00;1.65;;;;;;;13.90;64.73;101080.44;5029352;28;20033;-55
2023/04/25 01:36:11;;;;;;;3.38;1.38;;;;;;;13.91;64.30;101087.47;5029943;28;20033;-55
2023/04/25 01:38:36;;;;;;;3.08;1.50;;;;;;;13.92;64.21;101082.97;5029260;28;20406;-55
2023/04/25 01:41:01;;;;;;;2.75;1.60;;;;;;;13.92;64.61;101089.19;5029259;28;20068;-55
2023/04/25 01:43:27;;;;;;;2.70;1.63;;;;;;;13.91;64.42;101087.47;5028347;28;20403;-55
2023/04/25 01:45:52;;;;;;;1.45;1.13;;;;;;;13.92;64.06;101085.66;5028959;28;20064;-55
2023/04/25 01:48:18;;;;;;;2.22;1.52;;;;;;;13.91;64.49;101086.63;5029348;28;20127;-55
2023/04/25 01:50:44;;;;;;;1.65;1.30;;;;;;;13.91;64.16;101083.94;5028669;28;20511;-55
2023/04/25 01:53:12;;;;;;;1.83;1.30;;;;;;;13.91;64.09;101089.31;5029162;28;20422;-55
2023/04/25 01:55:38;;;;;;;3.78;1.45;;;;;;;13.89;64.10;101082.22;5010301;28;20039;-55
2023/04/25 01:58:08;;;;;;;2.13;1.40;;;;;;;13.88;64.20;101085.88;5029208;28;20036;-55
2023/04/25 02:00:34;;;;;;;3.83;1.50;;;;;;;13.90;64.65;101088.47;5029661;28;20483;-55
2023/04/25 02:02:59;;;;;;;2.10;1.40;;;;;;;13.88;64.24;101087.72;5028204;28;20052;-55
2023/04/25 02:05:25;;;;;;;2.97;1.50;;;;;;;13.88;64.20;101099.28;5028811;28;20036;-55
2023/04/25 02:07:50;;;;;;;2.78;1.40;;;;;;;13.87;64.18;101102.91;5028014;28;20052;-55
2023/04/25 02:10:15;;;;;;;1.75;1.23;;;;;;;13.88;64.05;101101.09;5028734;28;20048;-55
2023/04/25 02:12:41;;;;;;;3.00;1.58;;;;;;;13.88;64.23;101107.31;5038047;28;20065;-55
2023/04/25 02:15:07;;;;;;;3.50;1.40;;;;;;;13.87;64.29;101110.94;5028484;28;20056;-55
2023/04/25 02:17:32;;;;;;;2.70;1.50;;;;;;;13.88;64.57;101109.13;5028706;28;20537;-55
2023/04/25 02:19:57;;;;;;;2.08;1.38;;;;;;;13.88;64.16;101111.81;5027799;28;20584;-55
2023/04/25 02:22:23;;;;;;;2.30;1.38;;;;;;;13.87;64.13;101110.09;5028617;28;20067;-55
2023/04/25 02:24:48;;;;;;;2.30;1.30;;;;;;;13.87;64.11;101112.75;5011169;28;20041;-55
2023/04/25 02:27:13;;;;;;;2.33;1.55;;;;;;;13.86;64.52;101119.94;5028092;28;20037;-55
2023/04/25 02:29:39;;;;;;;1.33;1.23;;;;;;;13.86;64.06;101113.75;5028648;28;20092;-55
2023/04/25 02:32:04;;;;;;;2.65;1.75;;;;;;;13.86;64.41;101111.06;5028022;28;20433;-55
2023/04/25 02:34:29;;;;;;;3.17;1.50;;;;;;;13.85;64.33;101109.34;5028017;28;20438;-55
2023/04/25 02:36:55;;;;;;;2.60;1.48;;;;;;;13.84;64.40;101104.94;5028664;28;20026;-55
2023/04/25 02:39:22;;;;;;;2.83;1.48;;;;;;;13.85;64.42;101114.69;5027376;28;20080;-55
2023/04/25 02:41:47;;;;;;;2.40;1.50;;;;;;;13.85;63.93;101112.03;5027899;28;20025;-55
2023/04/25 02:44:12;;;;;;;3.10;1.42;;;;;;;13.84;64.03;101116.53;5027413;28;20078;-55
2023/04/25 02:46:38;;;;;;;2.25;1.25;;;;;;;13.84;64.41;101113.84;5028499;28;20029;-55
2023/04/25 02:49:03;;;;;;;3.13;1.40;;;;;;;13.83;64.08;101106.78;5027122;28;20037;-55
2023/04/25 02:51:28;;;;;;;3.13;1.70;;;;;;;13.84;64.27;101115.66;5027535;28;20037;-55
2023/04/25 02:53:54;;;;;;;3.53;1.60;;;;;;;13.84;64.37;101118.31;5022621;28;20535;-55
2023/04/25 02:56:19;;;;;;;2.92;1.60;;;;;;;13.83;64.38;101113.97;5027771;28;20395;-55
2023/04/25 02:58:44;;;;;;;2.83;1.48;;;;;;;13.82;64.35;101109.56;5027534;28;20071;-55
2023/04/25 03:01:10;;;;;;;4.43;1.70;;;;;;;13.83;64.01;101119.31;5026829;28;20045;-55
2023/04/25 03:03:35;;;;;;;2.75;1.77;;;;;;;13.82;64.30;101121.16;5027814;28;20037;-55
2023/04/25 03:06:01;;;;;;;1.73;1.33;;;;;;;13.82;64.43;101117.59;5027670;28;20084;-55
2023/04/25 03:08:29;;;;;;;3.58;1.77;;;;;;;13.83;64.43;101119.31;5026876;28;20032;-55
2023/04/25 03:10:55;;;;;;;2.45;1.60;;;;;;;13.81;64.06;101124.78;5027660;28;20099;-55
2023/04/25 03:13:20;;;;;;;3.53;1.60;;;;;;;13.80;64.11;101115.06;5034668;28;20395;-55
2023/04/25 03:15:46;;;;;;;2.45;1.30;;;;;;;13.81;64.45;101113.22;5026369;28;20040;-55
2023/04/25 03:18:11;;;;;;;2.53;1.52;;;;;;;13.81;64.44;101115.91;5027770;28;20041;-55
2023/04/25 03:20:36;;;;;;;2.72;1.42;;;;;;;13.81;64.32;101119.41;5027264;28;20120;-55
2023/04/25 03:23:02;;;;;;;3.03;1.50;;;;;;;13.80;64.46;101124.88;5027613;28;20033;-55
2023/04/25 03:25:27;;;;;;;2.80;1.25;;;;;;;13.81;64.04;101130.13;5026484;28;20029;-55
2023/04/25 03:27:52;;;;;;;2.47;1.52;;;;;;;13.80;64.17;101122.19;5009576;28;20076;-55
2023/04/25 03:30:18;;;;;;;3.53;1.50;;;;;;;13.81;64.39;101126.59;5027498;28;20112;-55
2023/04/25 03:32:43;;;;;;;2.42;1.40;;;;;;;13.80;64.29;101116.84;5026673;28;20073;-55
2023/04/25 03:35:08;;;;;;;3.10;1.33;;;;;;;13.79;64.00;101124.03;5027157;28;20041;-55
2023/04/25 03:37:34;;;;;;;2.78;1.70;;;;;;;13.79;63.93;101123.19;5026590;28;20478;-55
2023/04/25 03:39:59;;;;;;;2.28;1.30;;;;;;;13.78;64.42;101127.66;5007604;28;20376;-55
2023/04/25 03:42:25;;;;;;;2.42;1.40;;;;;;;13.78;64.08;101124.13;5029004;28;20091;-55
2023/04/25 03:44:51;;;;;;;1.70;1.60;;;;;;;13.79;64.11;101128.53;5026330;28;20113;-55
2023/04/25 03:47:17;;;;;;;1.75;1.27;;;;;;;13.78;64.12;101116.09;5027286;28;20507;-55
2023/04/25 03:49:42;;;;;;;6.97;1.63;;;;;;;13.78;64.00;101118.78;5026119;28;20034;-55
2023/04/25 03:52:07;;;;;;;3.13;1.60;;;;;;;13.77;64.29;101123.28;5027237;28;20037;-55
2023/04/25 03:54:33;;;;;;;3.08;1.40;;;;;;;13.77;64.01;101122.44;5027165;28;20128;-55
2023/04/25 03:56:58;;;;;;;1.42;1.08;;;;;;;13.77;64.22;101119.78;5026504;28;20052;-55
2023/04/25 03:59:24;;;;;;;3.83;1.65;;;;;;;13.77;64.05;101119.78;5026813;28;20033;-55
2023/04/25 04:01:50;;;;;;;2.30;1.33;;;;;;;13.77;64.19;101125.13;5026067;28;20067;-55
2023/04/25 04:04:15;;;;;;;1.92;1.50;;;;;;;13.76;63.74;101120.72;5008289;28;20029;-55
2023/04/25 04:06:42;;;;;;;3.33;1.42;;;;;;;13.77;64.20;101133.16;5025942;28;20037;-55
2023/04/25 04:09:10;;;;;;;2.10;1.40;;;;;;;13.76;64.19;101134.09;5025768;28;20040;-55
2023/04/25 04:11:38;;;;;;;2.92;1.27;;;;;;;13.77;63.85;101146.53;5026057;28;20033;-55
2023/04/25 04:14:05;;;;;;;2.58;1.58;;;;;;;13.75;64.09;101141.28;5025004;28;20075;-55
2023/04/25 04:16:30;;;;;;;2.60;1.45;;;;;;;13.76;63.95;101152.84;5026019;28;20475;-55
2023/04/25 04:18:56;;;;;;;2.90;1.40;;;;;;;13.75;63.89;101153.81;5024945;28;20040;-55
2023/04/25 04:21:21;;;;;;;3.28;1.50;;;;;;;13.75;64.09;101151.16;5025494;28;20537;-55
2023/04/25 04:23:47;;;;;;;2.03;1.40;;;;;;;13.74;63.87;101150.25;5026005;28;20434;-56
2023/04/25 04:26:15;;;;;;;1.98;1.52;;;;;;;13.74;64.09;101152.09;5025883;28;20059;-55
2023/04/25 04:28:40;;;;;;;2.92;1.60;;;;;;;13.74;64.13;101150.25;5026030;28;20113;-55
2023/04/25 04:31:07;;;;;;;2.50;1.50;;;;;;;13.74;63.85;101155.63;5027976;28;20129;-55
2023/04/25 04:33:32;;;;;;;1.73;1.33;;;;;;;13.74;64.13;101155.63;5025071;28;20030;-55
2023/04/25 04:35:58;;;;;;;2.17;1.38;;;;;;;13.74;63.91;101160.13;5026137;28;20065;-55
2023/04/25 04:38:25;;;;;;;2.63;1.38;;;;;;;13.73;64.03;101164.63;5007407;28;20052;-55
2023/04/25 04:40:50;;;;;;;2.10;1.10;;;;;;;13.73;64.33;101166.41;5021028;28;20117;-56
2023/04/25 04:43:16;;;;;;;1.83;1.33;;;;;;;13.73;63.73;101161.94;5025322;28;20117;-56
2023/04/25 04:45:42;;;;;;;2.83;1.38;;;;;;;13.73;63.87;101166.41;5026720;28;20487;-55
2023/04/25 04:48:08;;;;;;;4.50;1.55;;;;;;;13.72;63.95;101162.06;5028348;28;20026;-55
2023/04/25 04:50:33;;;;;;;3.30;1.80;;;;;;;13.72;63.98;101162.06;5031462;28;20029;-55
2023/04/25 04:52:59;;;;;;;3.38;1.45;;;;;;;13.72;64.26;101167.41;5029152;28;20061;-55
2023/04/25 04:55:24;;;;;;;2.97;1.30;;;;;;;13.71;64.07;101168.34;5024624;28;20037;-55
2023/04/25 04:57:50;;;;;;;1.77;1.17;;;;;;;13.72;64.12;101170.94;5023400;28;20071;-56
2023/04/25 05:00:15;;;;;;;2.05;1.20;;;;;;;13.70;64.12;101180.88;5025835;28;20057;-56
2023/04/25 05:02:41;;;;;;;7.10;1.70;;;;;;;13.71;64.34;101182.63;5030018;28;20096;-55
2023/04/25 05:05:07;;;;;;;6.60;1.80;;;;;;;13.71;64.29;101184.41;5028784;28;20026;-55
2023/04/25 05:07:33;;;;;;;4.60;1.55;;;;;;;13.71;64.27;101185.28;5028976;28;20172;-55
2023/04/25 05:09:58;;;;;;;3.50;1.60;;;;;;;13.72;64.33;101192.34;5024923;28;20482;-55
2023/04/25 05:12:23;;;;;;;3.70;1.75;;;;;;;13.72;64.06;101202.19;5023593;28;20033;-56
2023/04/25 05:14:49;;;;;;;3.15;1.25;;;;;;;13.73;64.19;101209.25;5011116;28;21217;-55
2023/04/25 05:17:14;;;;;;;3.15;1.60;;;;;;;13.71;64.07;101203.16;5027556;28;20102;-55
2023/04/25 05:19:39;;;;;;;4.43;1.40;;;;;;;13.70;64.57;101194.28;5005447;28;20036;-55
2023/04/25 05:22:05;;;;;;;6.93;1.83;;;;;;;13.71;64.48;101203.16;5026568;28;20041;-56
2023/04/25 05:24:30;;;;;;;2.67;1.58;;;;;;;13.71;64.39;101211.16;5031656;28;20490;-56
2023/04/25 05:26:56;;;;;;;4.63;1.85;;;;;;;13.71;64.41;101208.50;5030884;28;20021;-55
2023/04/25 05:29:21;;;;;;;2.58;1.33;;;;;;;13.69;64.29;101214.84;5026829;28;20418;-55
2023/04/25 05:31:48;;;;;;;4.53;1.98;;;;;;;13.69;64.12;101217.50;5025459;28;20040;-55
2023/04/25 05:34:13;;;;;;;3.80;1.60;;;;;;;13.69;64.08;101230.88;5024605;28;20475;-56
2023/04/25 05:36:39;;;;;;;4.93;1.75;;;;;;;13.69;63.95;101220.19;5029537;28;20035;-55
2023/04/25 05:39:04;;;;;;;4.25;1.58;;;;;;;13.69;64.43;101224.69;5026732;28;20039;-55
2023/04/25 05:41:30;;;;;;;3.30;1.58;;;;;;;13.69;64.05;101225.53;5030428;28;20035;-55
2023/04/25 05:43:55;;;;;;;5.35;1.80;;;;;;;13.71;64.52;101221.88;5028644;28;20025;-55
2023/04/25 05:46:20;;;;;;;5.53;1.30;;;;;;;13.71;64.63;101224.56;5027238;28;20112;-55
2023/04/25 05:48:46;;;;;;;6.78;1.60;;;;;;;13.70;65.19;101231.72;5028357;28;20043;-55
2023/04/25 05:51:11;;;;;;;7.38;1.75;;;;;;;13.71;64.97;101238.81;5028660;28;20040;-55
2023/04/25 05:53:36;;;;;;;6.53;1.60;;;;;;;13.72;65.10;101240.50;5028577;28;20105;-55
2023/04/25 05:56:02;;;;;;;2.58;1.67;;;;;;;13.71;64.55;101240.59;5028831;28;20025;-55
2023/04/25 05:58:28;;;;;;;7.05;1.63;;;;;;;13.69;64.61;101252.28;5027267;28;20136;-55
2023/04/25 06:00:54;;;;;;;5.22;1.70;;;;;;;13.69;64.75;101248.78;5027717;28;20108;-55
2023/04/25 06:03:20;;;;;;;5.40;1.70;;;;;;;13.69;64.57;101256.81;5025899;28;20116;-55
2023/04/25 06:05:45;;;;;;;7.30;1.70;;;;;;;13.69;64.30;101257.66;5017189;28;20536;-55
2023/04/25 06:08:10;;;;;;;2.33;1.45;;;;;;;13.68;64.68;101258.59;5028287;28;20494;-55
2023/04/25 06:10:36;;;;;;;2.97;1.52;;;;;;;13.69;64.67;101270.19;5026487;28;20048;-55
2023/04/25 06:13:02;;;;;;;5.07;1.52;;;;;;;13.69;64.56;101265.69;5027799;28;20025;-55
2023/04/25 06:15:28;;;;;;;3.53;1.70;;;;;;;13.68;64.33;101255.91;5026604;28;20095;-55
2023/04/25 06:17:53;;;;;;;4.82;1.50;;;;;;;13.68;64.19;101260.44;5027109;28;20084;-55
2023/04/25 06:20:22;;;;;;;5.50;1.90;;;;;;;13.68;64.37;101266.63;5027603;28;20025;-55
2023/04/25 06:22:48;;;;;;;2.90;1.48;;;;;;;13.68;64.26;101266.63;5010230;28;20548;-55
2023/04/25 06:25:14;;;;;;;3.40;1.75;;;;;;;13.67;64.27;101269.44;5027661;28;20116;-55
2023/04/25 06:27:39;;;;;;;3.80;1.35;;;;;;;13.67;64.02;101269.44;5026979;28;20371;-55
2023/04/25 06:30:06;;;;;;;4.25;1.60;;;;;;;13.67;64.27;101262.25;5027131;28;20037;-55
2023/04/25 06:32:31;;;;;;;3.67;1.70;;;;;;;13.67;64.31;101264.94;5027450;28;20482;-55
2023/04/25 06:34:56;;;;;;;3.15;1.10;;;;;;;13.68;64.09;101271.13;5026616;28;20112;-55
2023/04/25 06:37:22;;;;;;;2.60;1.45;;;;;;;13.68;64.53;101271.97;5027064;28;20037;-55
2023/04/25 06:39:47;;;;;;;3.17;1.60;;;;;;;13.67;64.73;101270.28;5020719;28;20034;-55
2023/04/25 06:42:12;;;;;;;3.42;1.50;;;;;;;13.68;64.44;101281.84;5026777;28;20033;-55
2023/04/25 06:44:38;;;;;;;6.45;1.60;;;;;;;13.66;64.10;101273.91;5031615;28;20520;-55
2023/04/25 06:47:03;;;;;;;6.70;1.60;;;;;;;13.67;64.20;101278.31;5026637;28;20093;-55
2023/04/25 06:49:29;;;;;;;1.60;1.33;;;;;;;13.68;64.45;101287.19;5026930;28;20046;-55
2023/04/25 06:51:57;;;;;;;3.50;1.40;;;;;;;13.68;64.12;101298.72;5026227;28;20021;-55
2023/04/25 06:54:24;;;;;;;2.22;1.17;;;;;;;13.67;64.42;101289.00;5026618;28;20030;-55
2023/04/25 06:56:50;;;;;;;2.10;1.15;;;;;;;13.67;64.34;101280.13;5027823;28;20052;-55
2023/04/25 06:59:15;;;;;;;4.93;1.40;;;;;;;13.68;64.49;101295.22;5026747;28;20030;-55
2023/04/25 07:01:40;;;;;;;1.20;1.08;;;;;;;13.68;64.15;101297.88;4989089;28;1088910;-55
2023/04/25 07:04:06;;;;;;;1.83;1.00;;;;;;;13.67;64.28;101289.00;5027049;28;20437;-55
2023/04/25 07:06:31;;;;;;;2.33;1.45;;;;;;;13.69;64.20;101292.44;5027499;28;20025;-55
2023/04/25 07:08:57;;;;;;;1.77;1.33;;;;;;;13.68;64.36;101295.22;5027718;28;20046;-55
2023/04/25 07:11:22;;;;;;;4.40;1.67;;;;;;;13.68;64.26;101301.41;5026586;28;20033;-55
2023/04/25 07:13:47;;;;;;;2.28;1.17;;;;;;;13.69;64.56;101303.13;5027891;28;20053;-55
2023/04/25 07:16:13;;;;;;;3.60;1.40;;;;;;;13.69;64.28;101302.28;5026827;28;20396;-55
2023/04/25 07:18:38;;;;;;;6.13;1.52;;;;;;;13.69;64.42;101304.97;5009693;28;20069;-55
2023/04/25 07:21:04;;;;;;;2.97;1.33;;;;;;;13.68;64.51;101309.44;5026385;28;20041;-55
2023/04/25 07:23:29;;;;;;;1.65;1.20;;;;;;;13.68;64.71;101306.75;5026881;28;20096;-55
2023/04/25 07:25:55;;;;;;;3.33;1.13;;;;;;;13.69;64.41;101316.53;5027694;28;20030;-55
2023/04/25 07:28:21;;;;;;;3.17;1.63;;;;;;;13.71;64.82;101323.56;5027192;28;20033;-55
2023/04/25 07:30:47;;;;;;;1.63;1.17;;;;;;;13.70;64.63;101322.72;5027537;28;20037;-55
2023/04/25 07:33:12;;;;;;;2.33;1.38;;;;;;;13.71;64.40;101328.91;5026583;28;20039;-55
2023/04/25 07:35:37;;;;;;;1.58;1.15;;;;;;;13.69;64.47;101332.56;5027172;28;20598;-55
2023/04/25 07:38:03;;;;;;;1.83;1.05;;;;;;;13.69;64.39;101327.22;5027338;28;20032;-55
2023/04/25 07:40:28;;;;;;;2.53;1.50;;;;;;;13.69;64.88;101337.94;5019310;28;20132;-55
2023/04/25 07:42:54;;;;;;;2.03;1.40;;;;;;;13.71;64.67;101339.63;5026947;28;20431;-55
2023/04/25 07:45:19;;;;;;;2.10;1.30;;;;;;;13.70;64.81;101346.81;5008722;28;20029;-55
2023/04/25 07:47:45;;;;;;;3.03;1.35;;;;;;;13.70;64.64;101346.81;5026517;28;20029;-55
2023/04/25 07:50:10;;;;;;;3.58;1.10;;;;;;;13.71;64.59;101348.53;5027149;28;20033;-55
2023/04/25 07:52:36;;;;;;;1.67;1.00;;;;;;;13.72;64.83;101350.22;5026167;28;20061;-55
2023/04/25 07:55:01;;;;;;;4.72;1.52;;;;;;;13.73;64.36;101356.44;5026794;28;20107;-55
2023/04/25 07:57:27;;;;;;;3.97;1.23;;;;;;;13.73;64.87;101356.44;5008550;28;20033;-55
2023/04/25 07:59:52;;;;;;;1.67;1.10;;;;;;;13.73;64.85;101356.44;5026691;28;20034;-55
2023/04/25 08:02:17;;;;;;;1.88;1.35;;;;;;;13.74;65.04;101355.47;5027077;28;20548;-55
2023/04/25 08:04:43;;;;;;;2.55;1.15;;;;;;;13.73;64.94;101359.09;5025984;28;20041;-55
2023/04/25 08:07:09;;;;;;;2.20;1.30;;;;;;;13.73;64.75;101361.78;5026817;28;20033;-55
2023/04/25 08:09:36;;;;;;;4.53;1.60;;;;;;;13.73;64.51;101369.81;5026363;28;20037;-55
2023/04/25 08:12:02;;;;;;;2.30;1.25;;;;;;;13.74;64.71;101374.22;5026875;28;20037;-55
2023/04/25 08:14:31;;;;;;;3.45;1.30;;;;;;;13.74;64.63;101375.06;5009322;28;20032;-55
2023/04/25 08:16:56;;;;;;;1.85;1.20;;;;;;;13.74;64.48;101383.09;5026219;28;20038;-55
2023/04/25 08:19:21;;;;;;;4.03;1.08;;;;;;;13.74;64.45;101380.41;5027339;28;20464;-55
2023/04/25 08:21:47;;;;;;;1.45;1.00;;;;;;;13.74;64.57;101382.25;5025817;28;20403;-55
2023/04/25 08:24:12;;;;;;;1.77;1.20;;;;;;;13.76;64.55;101391.03;5026533;28;20435;-55
2023/04/25 08:26:38;;;;;;;2.35;1.20;;;;;;;13.75;64.41;101387.50;5008974;28;20480;-55
2023/04/25 08:29:05;;;;;;;2.05;1.10;;;;;;;13.75;64.49;101392.84;5024686;28;20033;-55
2023/04/25 08:31:30;;;;;;;2.25;1.00;;;;;;;13.75;64.74;101390.16;5026730;28;20034;-55
2023/04/25 08:33:56;;;;;;;2.78;1.20;;;;;;;13.77;64.68;101400.78;5025814;28;20538;-55
2023/04/25 08:36:21;;;;;;;2.85;1.40;;;;;;;13.76;64.91;101399.06;5026629;28;20038;-55
2023/04/25 08:38:47;;;;;;;2.67;1.27;;;;;;;13.76;64.83;101401.72;5007847;28;20483;-55
2023/04/25 08:41:13;;;;;;;2.30;1.50;;;;;;;13.76;64.66;101404.41;5020696;28;20084;-55
2023/04/25 08:43:44;;;;;;;1.75;1.00;;;;;;;13.77;64.53;101398.09;5025574;28;20117;-55
2023/04/25 08:46:11;;;;;;;2.58;1.15;;;;;;;13.76;64.96;101401.72;5026313;28;20064;-55
2023/04/25 08:48:36;;;;;;;2.40;1.65;;;;;;;13.76;64.70;101404.41;5025620;28;20025;-55
2023/04/25 08:51:05;;;;;;;3.38;1.20;;;;;;;13.76;64.89;101413.28;5025835;28;20114;-55
2023/04/25 08:53:32;;;;;;;3.33;1.17;;;;;;;13.77;64.61;101422.19;5026700;28;20033;-55
2023/04/25 08:55:59;;;;;;;2.63;1.10;;;;;;;13.77;64.48;101425.72;5025823;28;20025;-55
2023/04/25 08:58:25;;;;;;;2.83;1.63;;;;;;;13.77;64.82;101431.06;5025891;28;20383;-55
2023/04/25 09:00:52;;;;;;;3.92;1.17;;;;;;;13.77;64.62;101447.13;5025587;28;20031;-55
2023/04/25 09:03:18;;;;;;;1.65;0.93;;;;;;;13.77;64.69;101438.25;5025392;28;20099;-55
2023/04/25 09:05:44;;;;;;;1.60;0.93;;;;;;;13.77;64.95;101447.13;5026524;28;20040;-55
2023/04/25 09:08:10;;;;;;;1.02;0.98;;;;;;;13.78;64.64;101456.00;5025634;28;20028;-55
2023/04/25 09:10:36;;;;;;;2.05;1.20;;;;;;;13.78;64.94;101458.69;5026018;28;20037;-55
2023/04/25 09:13:08;;;;;;;2.10;1.30;;;;;;;13.78;64.61;101464.03;5025077;28;20449;-55
2023/04/25 09:15:47;;;;;;;2.35;1.13;;;;;;;13.80;64.80;101472.81;5025802;28;20391;-55
2023/04/25 09:18:13;;;;;;;2.65;0.98;;;;;;;13.80;64.83;101472.81;5026151;28;20033;-55
2023/04/25 09:20:43;;;;;;;2.35;1.20;;;;;;;13.79;64.81;101481.81;5025180;28;20036;-55
2023/04/25 09:23:08;;;;;;;2.75;1.17;;;;;;;13.79;64.45;101471.13;5025850;28;20064;-55
2023/04/25 09:25:42;;;;;;;2.35;1.10;;;;;;;13.80;64.64;101467.47;5024877;28;20064;-55
2023/04/25 09:28:08;;;;;;;4.13;1.50;;;;;;;13.79;64.52;101469.28;5008622;28;20447;-55
2023/04/25 09:30:35;;;;;;;3.97;1.20;;;;;;;13.80;64.44;101480.84;5025901;28;20034;-55
2023/04/25 09:33:06;;;;;;;2.42;1.20;;;;;;;13.80;64.99;101476.38;5009640;28;20468;-55
2023/04/25 09:35:45;;;;;;;1.80;1.10;;;;;;;13.81;64.52;101475.38;5012033;28;20037;-55
2023/04/25 09:38:12;;;;;;;3.63;1.40;;;;;;;13.82;64.48;101482.47;5028807;28;20029;-55
2023/04/25 09:40:45;;;;;;;3.95;1.10;;;;;;;13.82;64.63;101487.81;5019833;28;20057;-55
2023/04/25 09:43:22;;;;;;;3.53;1.20;;;;;;;13.84;64.93;101483.22;5029683;28;20035;-55
2023/04/25 09:45:48;;;;;;;1.48;1.00;;;;;;;13.81;64.86;101486.09;5028606;28;20037;-55
2023/04/25 09:48:20;;;;;;;1.10;0.80;;;;;;;13.81;64.76;101501.31;5029393;28;20056;-55
2023/04/25 09:51:06;;;;;;;4.22;1.30;;;;;;;13.83;64.89;101491.34;5027249;28;20496;-55
2023/04/25 09:53:33;;;;;;;2.30;1.10;;;;;;;13.82;64.72;101494.97;5026651;28;20038;-55
2023/04/25 09:56:03;;;;;;;1.73;1.02;;;;;;;13.80;64.96;101500.47;5028731;28;20361;-55
2023/04/25 09:58:29;;;;;;;1.27;1.00;;;;;;;13.81;64.70;101490.59;5015534;28;20031;-55
2023/04/25 10:01:00;;;;;;;2.70;1.00;;;;;;;13.81;64.70;101491.44;5028765;28;20040;-57
2023/04/25 10:03:26;;;;;;;5.93;1.30;;;;;;;13.81;65.03;101494.13;5029127;28;20403;-57
2023/04/25 10:05:53;;;;;;;1.48;0.90;;;;;;;13.82;65.06;101492.31;5028063;28;20536;-57
2023/04/25 10:08:19;;;;;;;1.55;0.80;;;;;;;13.82;65.05;101493.19;5010944;28;20127;-57
2023/04/25 10:10:46;;;;;;;1.35;1.10;;;;;;;13.82;65.05;101498.53;5029667;28;20033;-57
2023/04/25 10:13:14;;;;;;;2.33;1.33;;;;;;;13.84;64.63;101495.72;5010333;28;20033;-57
2023/04/25 10:15:41;;;;;;;2.55;1.10;;;;;;;13.82;65.22;101501.22;5028863;28;20041;-57
2023/04/25 10:18:06;;;;;;;1.27;1.05;;;;;;;13.84;64.87;101495.72;5021644;28;20103;-55
2023/04/25 10:20:32;;;;;;;1.13;0.95;;;;;;;13.83;64.98;101489.53;5031263;28;20061;-55
2023/04/25 10:23:11;;;;;;;2.70;1.00;;;;;;;13.85;64.94;101489.44;5029074;28;20029;-55
2023/04/25 10:25:36;;;;;;;2.85;1.00;;;;;;;13.85;65.03;101490.28;5027773;28;20033;-55
2023/04/25 10:28:03;;;;;;;2.53;1.02;;;;;;;13.85;65.02;101487.59;5028187;28;20037;-55
2023/04/25 10:30:29;;;;;;;3.45;1.10;;;;;;;13.86;64.91;101493.84;5027357;28;20041;-56
2023/04/25 10:32:55;;;;;;;1.60;1.13;;;;;;;13.86;65.39;101494.69;5010764;28;20034;-55
2023/04/25 10:35:29;;;;;;;1.15;0.90;;;;;;;13.87;65.09;101500.88;5028391;28;20041;-55
2023/04/25 10:38:05;;;;;;;1.48;0.93;;;;;;;13.87;64.81;101496.38;5027255;28;20032;-55
2023/04/25 10:40:31;;;;;;;1.98;1.10;;;;;;;13.89;64.96;101504.31;5018196;28;20041;-55
2023/04/25 10:43:31;;;;;;;1.95;1.30;;;;;;;13.88;65.07;101503.47;5027896;28;20026;-55
2023/04/25 10:45:59;;;;;;;3.28;1.10;;;;;;;13.87;64.88;101507.09;5026947;28;20029;-55
2023/04/25 10:48:25;;;;;;;1.15;0.88;;;;;;;13.88;65.01;101507.97;5028231;28;20429;-55
2023/04/25 10:51:10;;;;;;;1.52;0.90;;;;;;;13.88;64.89;101513.31;5026692;28;20376;-55
2023/04/25 10:53:36;;;;;;;2.33;1.20;;;;;;;13.87;65.30;101516.94;5025519;28;20037;-55
2023/04/25 10:56:22;;;;;;;1.10;0.80;;;;;;;13.85;65.37;101513.53;5027759;28;20051;-55
2023/04/25 10:58:48;;;;;;;2.13;0.95;;;;;;;13.85;65.29;101530.44;5030224;28;20032;-55
2023/04/25 11:01:15;;;;;;;2.20;0.95;;;;;;;13.84;65.33;101525.19;5027289;28;20064;-55
2023/04/25 11:03:46;;;;;;;2.05;0.77;;;;;;;13.84;64.98;101525.19;5027629;28;20443;-55
2023/04/25 11:06:23;;;;;;;1.65;1.15;;;;;;;13.84;64.89;101535.88;5026941;28;20068;-55
2023/04/25 11:08:51;;;;;;;2.80;1.20;;;;;;;13.84;64.93;101541.22;5027475;28;20424;-55
2023/04/25 11:11:17;;;;;;;1.55;1.13;;;;;;;13.85;65.02;101532.25;5026475;28;20541;-55
2023/04/25 11:13:43;;;;;;;1.75;0.95;;;;;;;13.85;65.25;101541.13;5026895;28;20033;-55
2023/04/25 11:16:09;;;;;;;1.33;0.88;;;;;;;13.84;65.19;101546.59;5027570;28;20042;-55
2023/04/25 11:18:35;;;;;;;2.63;1.00;;;;;;;13.86;65.26;101539.34;5026783;28;20051;-55
2023/04/25 11:21:00;;;;;;;1.20;1.10;;;;;;;13.85;64.98;101546.50;5027669;28;20496;-55